Pagrindinis puslapis
METAR-TAF:

METAR-TAF

Oro uostai :

Turinas, Italija

platuma: 45-05-20N, ilguma: 007-36-20E, Aukštis: 288 m

Dabartinis oras

Ataskaita buvo paskelbta 1 valandą ir 54 minutes, ne 16:50 UTC
Ramus vėjas
Temperatūra 18°C
Drėgmė 83%
Slėgis 1021 hPa
Matomumas: 8000 m
Su prošvaistėmis ne aukštis 1500 ft

METAR: LIMA 191650Z 00000KT 8000 BKN015 18/15 Q1021

Laikas: 20:44 (18:44 UTC)


TAF: trūkstamas

Orai ataskaitas ir orų prognozės (METAR, TAF).

turimą stotys yra geltonos ir raudonos taškus žemėlapyje.

Perkelti pele per norėdami pamatyti stoties vardą.

Tada spustelėkite, norėdami matyti oro stebėjimo ir prognozės.

Norėdami pakeisti žemėlapį: spustelėkite ant žalios mygtukų su juodo kryžiaus žemyn,; žalią mygtuką su brūkšneliu, jei norite nutolinti; arba žalių rodyklių gretimoms žemėlapius.


METAR-TAF: